sensor_id;sensor_type;location;lat;lon;timestamp;temperature;humidity
12130;DHT22;6128;59.340;18.040;2024-02-26T00:00:18;2.10;99.90
12130;DHT22;6128;59.340;18.040;2024-02-26T00:02:45;2.20;99.90
12130;DHT22;6128;59.340;18.040;2024-02-26T00:05:12;2.20;99.90
12130;DHT22;6128;59.340;18.040;2024-02-26T00:07:39;2.20;99.90
12130;DHT22;6128;59.340;18.040;2024-02-26T00:10:06;2.30;99.90
12130;DHT22;6128;59.340;18.040;2024-02-26T00:12:34;2.30;99.90
12130;DHT22;6128;59.340;18.040;2024-02-26T00:15:02;2.30;99.90
12130;DHT22;6128;59.340;18.040;2024-02-26T00:17:30;2.40;99.90
12130;DHT22;6128;59.340;18.040;2024-02-26T00:19:57;2.40;99.90
12130;DHT22;6128;59.340;18.040;2024-02-26T00:22:24;2.40;99.90
12130;DHT22;6128;59.340;18.040;2024-02-26T00:24:51;2.40;99.90
12130;DHT22;6128;59.340;18.040;2024-02-26T00:27:18;2.40;99.90
12130;DHT22;6128;59.340;18.040;2024-02-26T00:29:45;2.50;99.90
12130;DHT22;6128;59.340;18.040;2024-02-26T00:32:13;2.50;99.90
12130;DHT22;6128;59.340;18.040;2024-02-26T00:34:41;2.50;99.90
12130;DHT22;6128;59.340;18.040;2024-02-26T00:37:08;2.50;99.90
12130;DHT22;6128;59.340;18.040;2024-02-26T00:39:35;2.50;99.90
12130;DHT22;6128;59.340;18.040;2024-02-26T00:42:02;2.60;99.90
12130;DHT22;6128;59.340;18.040;2024-02-26T00:44:29;2.70;99.90
12130;DHT22;6128;59.340;18.040;2024-02-26T00:46:56;2.70;99.90
12130;DHT22;6128;59.340;18.040;2024-02-26T00:49:25;2.80;99.90
12130;DHT22;6128;59.340;18.040;2024-02-26T00:51:52;2.80;99.90
12130;DHT22;6128;59.340;18.040;2024-02-26T00:54:19;2.90;99.90
12130;DHT22;6128;59.340;18.040;2024-02-26T00:56:46;2.80;99.90
12130;DHT22;6128;59.340;18.040;2024-02-26T00:59:13;2.90;99.90
12130;DHT22;6128;59.340;18.040;2024-02-26T01:01:40;2.90;99.90
12130;DHT22;6128;59.340;18.040;2024-02-26T01:04:07;2.90;99.90
12130;DHT22;6128;59.340;18.040;2024-02-26T01:06:35;2.90;99.90
12130;DHT22;6128;59.340;18.040;2024-02-26T01:09:02;3.00;99.90
12130;DHT22;6128;59.340;18.040;2024-02-26T01:11:30;3.00;99.90
12130;DHT22;6128;59.340;18.040;2024-02-26T01:13:57;3.00;99.90
12130;DHT22;6128;59.340;18.040;2024-02-26T01:16:24;3.00;99.90
12130;DHT22;6128;59.340;18.040;2024-02-26T01:18:51;3.00;99.90
12130;DHT22;6128;59.340;18.040;2024-02-26T01:21:18;3.00;99.90
12130;DHT22;6128;59.340;18.040;2024-02-26T01:23:47;3.10;99.90
12130;DHT22;6128;59.340;18.040;2024-02-26T01:26:14;3.20;99.90
12130;DHT22;6128;59.340;18.040;2024-02-26T01:28:41;3.20;99.90
12130;DHT22;6128;59.340;18.040;2024-02-26T01:31:09;3.30;99.90
12130;DHT22;6128;59.340;18.040;2024-02-26T01:33:36;3.30;99.90
12130;DHT22;6128;59.340;18.040;2024-02-26T01:36:04;3.40;99.90
12130;DHT22;6128;59.340;18.040;2024-02-26T01:38:31;3.40;99.90
12130;DHT22;6128;59.340;18.040;2024-02-26T01:40:59;3.50;99.90
12130;DHT22;6128;59.340;18.040;2024-02-26T01:43:27;3.40;99.90
12130;DHT22;6128;59.340;18.040;2024-02-26T01:45:54;3.40;99.90
12130;DHT22;6128;59.340;18.040;2024-02-26T01:48:21;3.40;99.90
12130;DHT22;6128;59.340;18.040;2024-02-26T01:50:48;3.30;99.90
12130;DHT22;6128;59.340;18.040;2024-02-26T01:53:16;3.10;99.90
12130;DHT22;6128;59.340;18.040;2024-02-26T01:55:44;3.10;99.90
12130;DHT22;6128;59.340;18.040;2024-02-26T01:58:13;3.10;99.90
12130;DHT22;6128;59.340;18.040;2024-02-26T02:00:40;3.10;99.90
12130;DHT22;6128;59.340;18.040;2024-02-26T02:03:08;3.10;99.90
12130;DHT22;6128;59.340;18.040;2024-02-26T02:05:36;3.10;99.90
12130;DHT22;6128;59.340;18.040;2024-02-26T02:08:07;3.20;99.90
12130;DHT22;6128;59.340;18.040;2024-02-26T02:10:34;3.30;99.90
12130;DHT22;6128;59.340;18.040;2024-02-26T02:13:02;3.30;99.90
12130;DHT22;6128;59.340;18.040;2024-02-26T02:15:30;3.40;99.90
12130;DHT22;6128;59.340;18.040;2024-02-26T02:17:57;3.50;99.90
12130;DHT22;6128;59.340;18.040;2024-02-26T02:20:26;3.50;99.90
12130;DHT22;6128;59.340;18.040;2024-02-26T02:22:58;3.50;99.90
12130;DHT22;6128;59.340;18.040;2024-02-26T02:25:25;3.50;99.90
12130;DHT22;6128;59.340;18.040;2024-02-26T02:27:53;3.60;99.90
12130;DHT22;6128;59.340;18.040;2024-02-26T02:30:21;3.60;99.90
12130;DHT22;6128;59.340;18.040;2024-02-26T02:32:51;3.70;99.90
12130;DHT22;6128;59.340;18.040;2024-02-26T02:35:18;3.70;99.90
12130;DHT22;6128;59.340;18.040;2024-02-26T02:37:47;3.70;99.90
12130;DHT22;6128;59.340;18.040;2024-02-26T02:40:14;3.70;99.90
12130;DHT22;6128;59.340;18.040;2024-02-26T02:42:41;3.70;99.90
12130;DHT22;6128;59.340;18.040;2024-02-26T02:45:09;3.70;99.90
12130;DHT22;6128;59.340;18.040;2024-02-26T02:47:36;3.60;99.90
12130;DHT22;6128;59.340;18.040;2024-02-26T02:50:04;3.50;99.90
12130;DHT22;6128;59.340;18.040;2024-02-26T02:52:30;3.30;99.90
12130;DHT22;6128;59.340;18.040;2024-02-26T02:54:59;3.10;99.90
12130;DHT22;6128;59.340;18.040;2024-02-26T02:57:26;3.00;99.90
12130;DHT22;6128;59.340;18.040;2024-02-26T02:59:53;3.00;99.90
12130;DHT22;6128;59.340;18.040;2024-02-26T03:02:20;3.00;99.90
12130;DHT22;6128;59.340;18.040;2024-02-26T03:04:48;3.00;99.90
12130;DHT22;6128;59.340;18.040;2024-02-26T03:07:15;3.00;99.90
12130;DHT22;6128;59.340;18.040;2024-02-26T03:09:42;3.00;99.90
12130;DHT22;6128;59.340;18.040;2024-02-26T03:12:10;3.00;99.90
12130;DHT22;6128;59.340;18.040;2024-02-26T03:14:37;3.00;99.90
12130;DHT22;6128;59.340;18.040;2024-02-26T03:17:05;3.00;99.90
12130;DHT22;6128;59.340;18.040;2024-02-26T03:19:32;2.90;99.90
12130;DHT22;6128;59.340;18.040;2024-02-26T03:21:59;2.90;99.90
12130;DHT22;6128;59.340;18.040;2024-02-26T03:24:26;2.90;99.90
12130;DHT22;6128;59.340;18.040;2024-02-26T03:26:53;2.90;99.90
12130;DHT22;6128;59.340;18.040;2024-02-26T03:29:22;2.90;99.90
12130;DHT22;6128;59.340;18.040;2024-02-26T03:31:49;2.90;99.90
12130;DHT22;6128;59.340;18.040;2024-02-26T03:34:16;2.90;99.90
12130;DHT22;6128;59.340;18.040;2024-02-26T03:36:45;3.00;99.90
12130;DHT22;6128;59.340;18.040;2024-02-26T03:39:12;3.00;99.90
12130;DHT22;6128;59.340;18.040;2024-02-26T03:41:39;3.00;99.90
12130;DHT22;6128;59.340;18.040;2024-02-26T03:44:06;3.00;99.90
12130;DHT22;6128;59.340;18.040;2024-02-26T03:46:35;2.90;99.90
12130;DHT22;6128;59.340;18.040;2024-02-26T03:49:02;2.90;99.90
12130;DHT22;6128;59.340;18.040;2024-02-26T03:51:29;2.90;99.90
12130;DHT22;6128;59.340;18.040;2024-02-26T03:53:57;3.00;99.90
12130;DHT22;6128;59.340;18.040;2024-02-26T03:56:25;3.00;99.90
12130;DHT22;6128;59.340;18.040;2024-02-26T03:58:52;3.10;99.90
12130;DHT22;6128;59.340;18.040;2024-02-26T04:01:19;3.10;99.90
12130;DHT22;6128;59.340;18.040;2024-02-26T04:03:47;3.10;99.90
12130;DHT22;6128;59.340;18.040;2024-02-26T04:06:14;3.10;99.90
12130;DHT22;6128;59.340;18.040;2024-02-26T04:08:43;3.20;99.90
12130;DHT22;6128;59.340;18.040;2024-02-26T04:11:10;3.20;99.90
12130;DHT22;6128;59.340;18.040;2024-02-26T04:13:37;3.30;99.90
12130;DHT22;6128;59.340;18.040;2024-02-26T04:16:05;3.30;99.90
12130;DHT22;6128;59.340;18.040;2024-02-26T04:18:33;3.30;99.90
12130;DHT22;6128;59.340;18.040;2024-02-26T04:21:06;3.30;99.90
12130;DHT22;6128;59.340;18.040;2024-02-26T04:23:33;3.30;99.90
12130;DHT22;6128;59.340;18.040;2024-02-26T04:26:00;3.30;99.90
12130;DHT22;6128;59.340;18.040;2024-02-26T04:28:28;3.30;99.90
12130;DHT22;6128;59.340;18.040;2024-02-26T04:30:55;3.20;99.90
12130;DHT22;6128;59.340;18.040;2024-02-26T04:33:22;3.20;99.90
12130;DHT22;6128;59.340;18.040;2024-02-26T04:35:49;3.20;99.90
12130;DHT22;6128;59.340;18.040;2024-02-26T04:38:18;3.20;99.90
12130;DHT22;6128;59.340;18.040;2024-02-26T04:40:45;3.20;99.90
12130;DHT22;6128;59.340;18.040;2024-02-26T04:43:13;3.20;99.90
12130;DHT22;6128;59.340;18.040;2024-02-26T04:45:41;3.20;99.90
12130;DHT22;6128;59.340;18.040;2024-02-26T04:48:08;3.20;99.90
12130;DHT22;6128;59.340;18.040;2024-02-26T04:50:35;3.20;99.90
12130;DHT22;6128;59.340;18.040;2024-02-26T04:53:03;3.10;99.90
12130;DHT22;6128;59.340;18.040;2024-02-26T04:55:31;2.90;99.90
12130;DHT22;6128;59.340;18.040;2024-02-26T04:57:58;2.90;99.90
12130;DHT22;6128;59.340;18.040;2024-02-26T05:00:25;2.80;99.90
12130;DHT22;6128;59.340;18.040;2024-02-26T05:02:52;2.90;99.90
12130;DHT22;6128;59.340;18.040;2024-02-26T05:05:19;2.80;99.90
12130;DHT22;6128;59.340;18.040;2024-02-26T05:07:46;2.80;99.90
12130;DHT22;6128;59.340;18.040;2024-02-26T05:10:13;2.70;99.90
12130;DHT22;6128;59.340;18.040;2024-02-26T05:12:41;2.70;99.90
12130;DHT22;6128;59.340;18.040;2024-02-26T05:15:09;2.80;99.90
12130;DHT22;6128;59.340;18.040;2024-02-26T05:17:37;2.80;99.90
12130;DHT22;6128;59.340;18.040;2024-02-26T05:20:04;2.80;99.90
12130;DHT22;6128;59.340;18.040;2024-02-26T05:22:33;2.80;99.90
12130;DHT22;6128;59.340;18.040;2024-02-26T05:25:00;2.80;99.90
12130;DHT22;6128;59.340;18.040;2024-02-26T05:27:27;2.80;99.90
12130;DHT22;6128;59.340;18.040;2024-02-26T05:29:56;2.90;99.90
12130;DHT22;6128;59.340;18.040;2024-02-26T05:32:23;2.90;99.90
12130;DHT22;6128;59.340;18.040;2024-02-26T05:34:50;2.80;99.90
12130;DHT22;6128;59.340;18.040;2024-02-26T05:37:17;2.80;99.90
12130;DHT22;6128;59.340;18.040;2024-02-26T05:39:44;2.80;99.90
12130;DHT22;6128;59.340;18.040;2024-02-26T05:42:11;2.80;99.90
12130;DHT22;6128;59.340;18.040;2024-02-26T05:44:38;2.80;99.90
12130;DHT22;6128;59.340;18.040;2024-02-26T05:47:06;2.90;99.90
12130;DHT22;6128;59.340;18.040;2024-02-26T05:49:33;2.90;99.90
12130;DHT22;6128;59.340;18.040;2024-02-26T05:52:00;2.90;99.90
12130;DHT22;6128;59.340;18.040;2024-02-26T05:54:27;2.90;99.90
12130;DHT22;6128;59.340;18.040;2024-02-26T05:56:55;2.80;99.90
12130;DHT22;6128;59.340;18.040;2024-02-26T05:59:22;2.80;99.90
12130;DHT22;6128;59.340;18.040;2024-02-26T06:01:49;2.80;99.90
12130;DHT22;6128;59.340;18.040;2024-02-26T06:04:18;2.80;99.90
12130;DHT22;6128;59.340;18.040;2024-02-26T06:06:45;2.80;99.90
12130;DHT22;6128;59.340;18.040;2024-02-26T06:09:12;2.80;99.90
12130;DHT22;6128;59.340;18.040;2024-02-26T06:11:39;2.80;99.90
12130;DHT22;6128;59.340;18.040;2024-02-26T06:14:06;2.80;99.90
12130;DHT22;6128;59.340;18.040;2024-02-26T06:16:34;2.80;99.90
12130;DHT22;6128;59.340;18.040;2024-02-26T06:19:01;2.90;99.90
12130;DHT22;6128;59.340;18.040;2024-02-26T06:21:30;2.80;99.90
12130;DHT22;6128;59.340;18.040;2024-02-26T06:23:57;2.80;99.90
12130;DHT22;6128;59.340;18.040;2024-02-26T06:26:24;2.70;99.90
12130;DHT22;6128;59.340;18.040;2024-02-26T06:28:54;2.70;99.90
12130;DHT22;6128;59.340;18.040;2024-02-26T06:31:21;2.80;99.90
12130;DHT22;6128;59.340;18.040;2024-02-26T06:33:49;2.80;99.90
12130;DHT22;6128;59.340;18.040;2024-02-26T06:36:16;2.80;99.90
12130;DHT22;6128;59.340;18.040;2024-02-26T06:38:44;2.80;99.90
12130;DHT22;6128;59.340;18.040;2024-02-26T06:41:11;2.90;99.90
12130;DHT22;6128;59.340;18.040;2024-02-26T06:43:38;2.90;99.90
12130;DHT22;6128;59.340;18.040;2024-02-26T06:46:06;2.80;99.90
12130;DHT22;6128;59.340;18.040;2024-02-26T06:48:33;2.80;99.90
12130;DHT22;6128;59.340;18.040;2024-02-26T06:51:02;2.70;99.90
12130;DHT22;6128;59.340;18.040;2024-02-26T06:53:29;2.70;99.90
12130;DHT22;6128;59.340;18.040;2024-02-26T06:55:58;2.60;99.90
12130;DHT22;6128;59.340;18.040;2024-02-26T06:58:25;2.60;99.90
12130;DHT22;6128;59.340;18.040;2024-02-26T07:00:52;2.70;99.90
12130;DHT22;6128;59.340;18.040;2024-02-26T07:03:19;2.80;99.90
12130;DHT22;6128;59.340;18.040;2024-02-26T07:05:48;2.90;99.90
12130;DHT22;6128;59.340;18.040;2024-02-26T07:08:15;2.90;99.90
12130;DHT22;6128;59.340;18.040;2024-02-26T07:10:42;2.90;99.90
12130;DHT22;6128;59.340;18.040;2024-02-26T07:13:10;3.00;99.90
12130;DHT22;6128;59.340;18.040;2024-02-26T07:15:38;3.00;99.90
12130;DHT22;6128;59.340;18.040;2024-02-26T07:18:05;3.10;99.90
12130;DHT22;6128;59.340;18.040;2024-02-26T07:20:32;3.00;99.90
12130;DHT22;6128;59.340;18.040;2024-02-26T07:22:59;3.00;99.90
12130;DHT22;6128;59.340;18.040;2024-02-26T07:25:26;3.00;99.90
12130;DHT22;6128;59.340;18.040;2024-02-26T07:27:54;3.00;99.90
12130;DHT22;6128;59.340;18.040;2024-02-26T07:30:22;3.00;99.90
12130;DHT22;6128;59.340;18.040;2024-02-26T07:32:50;3.40;99.90
12130;DHT22;6128;59.340;18.040;2024-02-26T07:35:17;3.60;99.90
12130;DHT22;6128;59.340;18.040;2024-02-26T07:37:47;3.80;99.90
12130;DHT22;6128;59.340;18.040;2024-02-26T07:40:15;3.90;99.90
12130;DHT22;6128;59.340;18.040;2024-02-26T07:42:42;4.10;99.90
12130;DHT22;6128;59.340;18.040;2024-02-26T07:45:10;4.20;99.90
12130;DHT22;6128;59.340;18.040;2024-02-26T07:47:38;4.30;99.90
12130;DHT22;6128;59.340;18.040;2024-02-26T07:50:07;4.30;99.90
12130;DHT22;6128;59.340;18.040;2024-02-26T07:52:34;4.30;99.90
12130;DHT22;6128;59.340;18.040;2024-02-26T07:55:02;4.20;99.90
12130;DHT22;6128;59.340;18.040;2024-02-26T07:57:29;4.20;99.90
12130;DHT22;6128;59.340;18.040;2024-02-26T07:59:56;4.30;99.90
12130;DHT22;6128;59.340;18.040;2024-02-26T08:02:24;4.30;99.90
12130;DHT22;6128;59.340;18.040;2024-02-26T08:04:52;4.30;99.90
12130;DHT22;6128;59.340;18.040;2024-02-26T08:07:19;4.20;99.90
12130;DHT22;6128;59.340;18.040;2024-02-26T08:09:46;4.20;99.90
12130;DHT22;6128;59.340;18.040;2024-02-26T08:12:14;4.10;99.90
12130;DHT22;6128;59.340;18.040;2024-02-26T08:14:41;4.10;99.90
12130;DHT22;6128;59.340;18.040;2024-02-26T08:17:08;4.00;99.90
12130;DHT22;6128;59.340;18.040;2024-02-26T08:19:35;4.10;99.90
12130;DHT22;6128;59.340;18.040;2024-02-26T08:22:04;4.10;99.90
12130;DHT22;6128;59.340;18.040;2024-02-26T08:24:31;4.10;99.90
12130;DHT22;6128;59.340;18.040;2024-02-26T08:26:58;4.20;99.90
12130;DHT22;6128;59.340;18.040;2024-02-26T08:29:25;4.30;99.90
12130;DHT22;6128;59.340;18.040;2024-02-26T08:31:52;4.40;99.90
12130;DHT22;6128;59.340;18.040;2024-02-26T08:34:19;4.30;99.90
12130;DHT22;6128;59.340;18.040;2024-02-26T08:36:46;4.30;99.90
12130;DHT22;6128;59.340;18.040;2024-02-26T08:39:16;4.10;99.90
12130;DHT22;6128;59.340;18.040;2024-02-26T08:41:43;4.10;99.90
12130;DHT22;6128;59.340;18.040;2024-02-26T08:44:10;4.10;99.90
12130;DHT22;6128;59.340;18.040;2024-02-26T08:46:37;4.00;99.90
12130;DHT22;6128;59.340;18.040;2024-02-26T08:49:04;4.20;99.90
12130;DHT22;6128;59.340;18.040;2024-02-26T08:51:31;4.50;99.90
12130;DHT22;6128;59.340;18.040;2024-02-26T08:53:57;4.70;99.90
12130;DHT22;6128;59.340;18.040;2024-02-26T08:56:26;4.90;99.90
12130;DHT22;6128;59.340;18.040;2024-02-26T08:58:53;5.50;99.90
12130;DHT22;6128;59.340;18.040;2024-02-26T09:01:22;5.80;99.90
12130;DHT22;6128;59.340;18.040;2024-02-26T09:03:50;6.00;99.90
12130;DHT22;6128;59.340;18.040;2024-02-26T09:06:17;6.50;99.90
12130;DHT22;6128;59.340;18.040;2024-02-26T09:08:44;6.60;99.90
12130;DHT22;6128;59.340;18.040;2024-02-26T09:11:11;6.50;99.90
12130;DHT22;6128;59.340;18.040;2024-02-26T09:13:39;6.40;99.90
12130;DHT22;6128;59.340;18.040;2024-02-26T09:16:08;6.10;99.90
12130;DHT22;6128;59.340;18.040;2024-02-26T09:18:35;5.80;99.90
12130;DHT22;6128;59.340;18.040;2024-02-26T09:21:04;5.50;99.90
12130;DHT22;6128;59.340;18.040;2024-02-26T09:23:31;5.20;99.90
12130;DHT22;6128;59.340;18.040;2024-02-26T09:25:59;4.90;99.90
12130;DHT22;6128;59.340;18.040;2024-02-26T09:28:26;4.70;99.90
12130;DHT22;6128;59.340;18.040;2024-02-26T09:30:54;4.70;99.90
12130;DHT22;6128;59.340;18.040;2024-02-26T09:33:21;4.50;99.90
12130;DHT22;6128;59.340;18.040;2024-02-26T09:35:49;4.10;99.90
12130;DHT22;6128;59.340;18.040;2024-02-26T09:38:16;4.10;99.90
12130;DHT22;6128;59.340;18.040;2024-02-26T09:40:43;3.90;99.90
12130;DHT22;6128;59.340;18.040;2024-02-26T09:43:14;3.90;99.90
12130;DHT22;6128;59.340;18.040;2024-02-26T09:45:41;3.90;99.90
12130;DHT22;6128;59.340;18.040;2024-02-26T09:48:10;3.80;99.90
12130;DHT22;6128;59.340;18.040;2024-02-26T09:50:41;3.70;99.90
12130;DHT22;6128;59.340;18.040;2024-02-26T09:53:10;3.90;99.90
12130;DHT22;6128;59.340;18.040;2024-02-26T09:55:37;4.00;99.90
12130;DHT22;6128;59.340;18.040;2024-02-26T09:58:05;4.20;99.90
12130;DHT22;6128;59.340;18.040;2024-02-26T10:00:37;4.30;99.90
12130;DHT22;6128;59.340;18.040;2024-02-26T10:03:05;4.40;99.90
12130;DHT22;6128;59.340;18.040;2024-02-26T10:05:35;4.50;99.90
12130;DHT22;6128;59.340;18.040;2024-02-26T10:08:04;4.60;99.90
12130;DHT22;6128;59.340;18.040;2024-02-26T10:10:33;4.70;99.90
12130;DHT22;6128;59.340;18.040;2024-02-26T10:13:00;4.80;99.90
12130;DHT22;6128;59.340;18.040;2024-02-26T10:15:27;4.60;99.90
12130;DHT22;6128;59.340;18.040;2024-02-26T10:17:54;4.60;99.90
12130;DHT22;6128;59.340;18.040;2024-02-26T10:20:22;4.80;99.90
12130;DHT22;6128;59.340;18.040;2024-02-26T10:22:51;4.90;99.90
12130;DHT22;6128;59.340;18.040;2024-02-26T10:25:19;5.10;99.90
12130;DHT22;6128;59.340;18.040;2024-02-26T10:27:46;5.10;99.90
12130;DHT22;6128;59.340;18.040;2024-02-26T10:30:16;5.10;99.90
12130;DHT22;6128;59.340;18.040;2024-02-26T10:32:46;5.10;99.90
12130;DHT22;6128;59.340;18.040;2024-02-26T10:35:14;5.20;99.90
12130;DHT22;6128;59.340;18.040;2024-02-26T10:37:41;5.20;99.90
12130;DHT22;6128;59.340;18.040;2024-02-26T10:40:12;5.00;99.90
12130;DHT22;6128;59.340;18.040;2024-02-26T10:42:39;5.10;99.90
12130;DHT22;6128;59.340;18.040;2024-02-26T10:45:07;5.10;99.90
12130;DHT22;6128;59.340;18.040;2024-02-26T10:47:35;5.10;99.90
12130;DHT22;6128;59.340;18.040;2024-02-26T10:50:03;5.00;99.90
12130;DHT22;6128;59.340;18.040;2024-02-26T10:52:32;5.00;99.90
12130;DHT22;6128;59.340;18.040;2024-02-26T10:55:01;5.00;99.90
12130;DHT22;6128;59.340;18.040;2024-02-26T10:57:33;4.90;99.90
12130;DHT22;6128;59.340;18.040;2024-02-26T11:00:02;4.90;99.90
12130;DHT22;6128;59.340;18.040;2024-02-26T11:02:32;4.70;99.90
12130;DHT22;6128;59.340;18.040;2024-02-26T11:05:01;4.80;99.90
12130;DHT22;6128;59.340;18.040;2024-02-26T11:07:30;4.80;99.90
12130;DHT22;6128;59.340;18.040;2024-02-26T11:09:59;4.90;99.90
12130;DHT22;6128;59.340;18.040;2024-02-26T11:12:28;4.90;99.90
12130;DHT22;6128;59.340;18.040;2024-02-26T11:14:57;4.80;99.90
12130;DHT22;6128;59.340;18.040;2024-02-26T11:17:27;4.80;99.90
12130;DHT22;6128;59.340;18.040;2024-02-26T11:19:57;4.50;99.90
12130;DHT22;6128;59.340;18.040;2024-02-26T11:22:25;4.30;99.90
12130;DHT22;6128;59.340;18.040;2024-02-26T11:24:53;4.00;99.90
12130;DHT22;6128;59.340;18.040;2024-02-26T11:27:25;4.10;99.90
12130;DHT22;6128;59.340;18.040;2024-02-26T11:29:57;4.10;99.90
12130;DHT22;6128;59.340;18.040;2024-02-26T11:32:27;4.30;99.90
12130;DHT22;6128;59.340;18.040;2024-02-26T11:34:56;4.40;99.90
12130;DHT22;6128;59.340;18.040;2024-02-26T11:37:24;4.40;99.90
12130;DHT22;6128;59.340;18.040;2024-02-26T11:39:52;4.30;99.90
12130;DHT22;6128;59.340;18.040;2024-02-26T11:42:24;4.40;99.90
12130;DHT22;6128;59.340;18.040;2024-02-26T11:44:51;4.50;99.90
12130;DHT22;6128;59.340;18.040;2024-02-26T11:47:21;4.30;99.90
12130;DHT22;6128;59.340;18.040;2024-02-26T11:49:49;4.40;99.90
12130;DHT22;6128;59.340;18.040;2024-02-26T11:52:16;4.20;99.90
12130;DHT22;6128;59.340;18.040;2024-02-26T11:54:44;4.10;99.90
12130;DHT22;6128;59.340;18.040;2024-02-26T11:57:25;4.10;99.90
12130;DHT22;6128;59.340;18.040;2024-02-26T11:59:54;4.20;99.90
12130;DHT22;6128;59.340;18.040;2024-02-26T12:02:44;4.20;99.90
12130;DHT22;6128;59.340;18.040;2024-02-26T12:05:12;4.10;99.90
12130;DHT22;6128;59.340;18.040;2024-02-26T12:07:40;4.10;99.90
12130;DHT22;6128;59.340;18.040;2024-02-26T12:10:30;4.00;99.90
12130;DHT22;6128;59.340;18.040;2024-02-26T12:13:03;4.10;99.90
12130;DHT22;6128;59.340;18.040;2024-02-26T12:15:32;4.10;99.90
12130;DHT22;6128;59.340;18.040;2024-02-26T12:18:02;4.30;99.90
12130;DHT22;6128;59.340;18.040;2024-02-26T12:20:30;4.50;99.90
12130;DHT22;6128;59.340;18.040;2024-02-26T12:22:58;4.70;99.90
12130;DHT22;6128;59.340;18.040;2024-02-26T12:25:26;5.00;99.90
12130;DHT22;6128;59.340;18.040;2024-02-26T12:27:53;5.10;99.90
12130;DHT22;6128;59.340;18.040;2024-02-26T12:30:21;4.90;99.90
12130;DHT22;6128;59.340;18.040;2024-02-26T12:32:49;4.80;99.90
12130;DHT22;6128;59.340;18.040;2024-02-26T12:35:18;4.80;99.90
12130;DHT22;6128;59.340;18.040;2024-02-26T12:37:46;4.70;99.90
12130;DHT22;6128;59.340;18.040;2024-02-26T12:40:14;4.60;99.90
12130;DHT22;6128;59.340;18.040;2024-02-26T12:42:41;4.60;99.90
12130;DHT22;6128;59.340;18.040;2024-02-26T12:45:10;4.60;99.90
12130;DHT22;6128;59.340;18.040;2024-02-26T12:47:38;4.60;99.90
12130;DHT22;6128;59.340;18.040;2024-02-26T12:50:06;4.70;99.90
12130;DHT22;6128;59.340;18.040;2024-02-26T12:52:36;4.90;99.90
12130;DHT22;6128;59.340;18.040;2024-02-26T12:55:04;5.00;99.90
12130;DHT22;6128;59.340;18.040;2024-02-26T12:57:33;5.20;99.90
12130;DHT22;6128;59.340;18.040;2024-02-26T13:00:02;5.30;99.90
12130;DHT22;6128;59.340;18.040;2024-02-26T13:02:30;5.30;99.90
12130;DHT22;6128;59.340;18.040;2024-02-26T13:04:57;5.40;99.90
12130;DHT22;6128;59.340;18.040;2024-02-26T13:07:27;5.40;99.90
12130;DHT22;6128;59.340;18.040;2024-02-26T13:09:55;5.40;99.90
12130;DHT22;6128;59.340;18.040;2024-02-26T13:12:23;5.60;99.90
12130;DHT22;6128;59.340;18.040;2024-02-26T13:14:59;5.60;99.90
12130;DHT22;6128;59.340;18.040;2024-02-26T13:17:26;5.70;99.90
12130;DHT22;6128;59.340;18.040;2024-02-26T13:19:54;5.80;99.90
12130;DHT22;6128;59.340;18.040;2024-02-26T13:22:21;5.90;99.90
12130;DHT22;6128;59.340;18.040;2024-02-26T13:24:59;6.00;99.90
12130;DHT22;6128;59.340;18.040;2024-02-26T13:27:28;5.90;99.90
12130;DHT22;6128;59.340;18.040;2024-02-26T13:30:03;6.00;99.90
12130;DHT22;6128;59.340;18.040;2024-02-26T13:32:33;6.00;99.90
12130;DHT22;6128;59.340;18.040;2024-02-26T13:35:05;6.10;99.90
12130;DHT22;6128;59.340;18.040;2024-02-26T13:37:33;6.10;99.90
12130;DHT22;6128;59.340;18.040;2024-02-26T13:40:04;6.30;99.90
12130;DHT22;6128;59.340;18.040;2024-02-26T13:42:32;6.30;99.90
12130;DHT22;6128;59.340;18.040;2024-02-26T13:44:59;6.30;99.90
12130;DHT22;6128;59.340;18.040;2024-02-26T13:47:26;6.30;99.90
12130;DHT22;6128;59.340;18.040;2024-02-26T13:49:53;6.20;99.90
12130;DHT22;6128;59.340;18.040;2024-02-26T13:52:22;6.20;99.90
12130;DHT22;6128;59.340;18.040;2024-02-26T13:54:49;6.10;99.90
12130;DHT22;6128;59.340;18.040;2024-02-26T13:57:18;6.00;99.90
12130;DHT22;6128;59.340;18.040;2024-02-26T13:59:46;6.00;99.90
12130;DHT22;6128;59.340;18.040;2024-02-26T14:02:13;6.00;99.90
12130;DHT22;6128;59.340;18.040;2024-02-26T14:04:41;6.00;99.90
12130;DHT22;6128;59.340;18.040;2024-02-26T14:07:08;5.80;99.90
12130;DHT22;6128;59.340;18.040;2024-02-26T14:09:37;5.80;99.90
12130;DHT22;6128;59.340;18.040;2024-02-26T14:12:05;5.80;99.90
12130;DHT22;6128;59.340;18.040;2024-02-26T14:14:33;5.70;99.90
12130;DHT22;6128;59.340;18.040;2024-02-26T14:17:04;5.60;99.90
12130;DHT22;6128;59.340;18.040;2024-02-26T14:19:31;5.60;99.90
12130;DHT22;6128;59.340;18.040;2024-02-26T14:21:58;5.40;99.90
12130;DHT22;6128;59.340;18.040;2024-02-26T14:24:25;5.30;99.90
12130;DHT22;6128;59.340;18.040;2024-02-26T14:26:52;5.20;99.90
12130;DHT22;6128;59.340;18.040;2024-02-26T14:29:19;5.10;99.90
12130;DHT22;6128;59.340;18.040;2024-02-26T14:31:48;5.10;99.90
12130;DHT22;6128;59.340;18.040;2024-02-26T14:34:15;5.10;99.90
12130;DHT22;6128;59.340;18.040;2024-02-26T14:36:44;5.10;99.90
12130;DHT22;6128;59.340;18.040;2024-02-26T14:39:12;5.10;99.90
12130;DHT22;6128;59.340;18.040;2024-02-26T14:41:40;5.20;99.90
12130;DHT22;6128;59.340;18.040;2024-02-26T14:44:07;5.20;99.90
12130;DHT22;6128;59.340;18.040;2024-02-26T14:46:36;5.20;99.90
12130;DHT22;6128;59.340;18.040;2024-02-26T14:49:04;5.30;99.90
12130;DHT22;6128;59.340;18.040;2024-02-26T14:51:32;5.30;99.90
12130;DHT22;6128;59.340;18.040;2024-02-26T14:53:59;5.30;99.90
12130;DHT22;6128;59.340;18.040;2024-02-26T14:56:27;5.30;99.90
12130;DHT22;6128;59.340;18.040;2024-02-26T14:58:54;5.40;99.90
12130;DHT22;6128;59.340;18.040;2024-02-26T15:01:23;5.40;99.90
12130;DHT22;6128;59.340;18.040;2024-02-26T15:03:50;5.30;99.90
12130;DHT22;6128;59.340;18.040;2024-02-26T15:06:19;5.20;99.90
12130;DHT22;6128;59.340;18.040;2024-02-26T15:08:46;5.10;99.90
12130;DHT22;6128;59.340;18.040;2024-02-26T15:11:14;5.10;99.90
12130;DHT22;6128;59.340;18.040;2024-02-26T15:13:41;5.00;99.90
12130;DHT22;6128;59.340;18.040;2024-02-26T15:16:08;5.00;99.90
12130;DHT22;6128;59.340;18.040;2024-02-26T15:18:37;4.90;99.90
12130;DHT22;6128;59.340;18.040;2024-02-26T15:21:05;4.80;99.90
12130;DHT22;6128;59.340;18.040;2024-02-26T15:23:34;4.80;99.90
12130;DHT22;6128;59.340;18.040;2024-02-26T15:26:01;4.90;99.90
12130;DHT22;6128;59.340;18.040;2024-02-26T15:28:29;4.90;99.90
12130;DHT22;6128;59.340;18.040;2024-02-26T15:30:56;4.90;99.90
12130;DHT22;6128;59.340;18.040;2024-02-26T15:33:23;4.80;99.90
12130;DHT22;6128;59.340;18.040;2024-02-26T15:35:51;4.70;99.90
12130;DHT22;6128;59.340;18.040;2024-02-26T15:38:18;4.70;99.90
12130;DHT22;6128;59.340;18.040;2024-02-26T15:40:50;4.70;99.90
12130;DHT22;6128;59.340;18.040;2024-02-26T15:43:20;4.70;99.90
12130;DHT22;6128;59.340;18.040;2024-02-26T15:45:47;4.70;99.90
12130;DHT22;6128;59.340;18.040;2024-02-26T15:48:16;4.50;99.90